sensor_id;sensor_type;location;lat;lon;timestamp;P1;durP1;ratioP1;P2;durP2;ratioP2
33074;SDS011;19433;51.292;6.868;2022-07-23T00:00:08;2.67;;;1.90;;
33074;SDS011;19433;51.292;6.868;2022-07-23T00:02:34;2.10;;;2.00;;
33074;SDS011;19433;51.292;6.868;2022-07-23T00:04:59;1.87;;;1.77;;
33074;SDS011;19433;51.292;6.868;2022-07-23T00:07:24;2.20;;;2.10;;
33074;SDS011;19433;51.292;6.868;2022-07-23T00:09:50;3.50;;;1.67;;
33074;SDS011;19433;51.292;6.868;2022-07-23T00:12:15;2.13;;;1.73;;
33074;SDS011;19433;51.292;6.868;2022-07-23T00:14:40;1.70;;;1.60;;
33074;SDS011;19433;51.292;6.868;2022-07-23T00:17:06;3.03;;;2.13;;
33074;SDS011;19433;51.292;6.868;2022-07-23T00:19:31;3.40;;;2.20;;
33074;SDS011;19433;51.292;6.868;2022-07-23T00:21:56;3.07;;;2.33;;
33074;SDS011;19433;51.292;6.868;2022-07-23T00:24:22;2.30;;;1.93;;
33074;SDS011;19433;51.292;6.868;2022-07-23T00:26:47;3.10;;;2.37;;
33074;SDS011;19433;51.292;6.868;2022-07-23T00:29:12;2.97;;;2.00;;
33074;SDS011;19433;51.292;6.868;2022-07-23T00:31:38;2.70;;;2.10;;
33074;SDS011;19433;51.292;6.868;2022-07-23T00:34:03;3.20;;;1.80;;
33074;SDS011;19433;51.292;6.868;2022-07-23T00:36:28;3.10;;;2.07;;
33074;SDS011;19433;51.292;6.868;2022-07-23T00:38:56;1.90;;;1.80;;
33074;SDS011;19433;51.292;6.868;2022-07-23T00:41:21;2.07;;;1.97;;
33074;SDS011;19433;51.292;6.868;2022-07-23T00:43:46;2.23;;;2.03;;
33074;SDS011;19433;51.292;6.868;2022-07-23T00:46:12;2.00;;;1.80;;
33074;SDS011;19433;51.292;6.868;2022-07-23T00:48:37;2.53;;;2.33;;
33074;SDS011;19433;51.292;6.868;2022-07-23T00:51:02;1.90;;;1.80;;
33074;SDS011;19433;51.292;6.868;2022-07-23T00:53:28;2.60;;;2.40;;
33074;SDS011;19433;51.292;6.868;2022-07-23T00:55:53;2.67;;;2.40;;
33074;SDS011;19433;51.292;6.868;2022-07-23T00:58:19;3.30;;;2.20;;
33074;SDS011;19433;51.292;6.868;2022-07-23T01:00:44;2.30;;;2.10;;
33074;SDS011;19433;51.292;6.868;2022-07-23T01:03:10;2.43;;;2.20;;
33074;SDS011;19433;51.292;6.868;2022-07-23T01:05:35;5.80;;;3.43;;
33074;SDS011;19433;51.292;6.868;2022-07-23T01:08:01;2.60;;;1.87;;
33074;SDS011;19433;51.292;6.868;2022-07-23T01:10:26;1.80;;;1.70;;
33074;SDS011;19433;51.292;6.868;2022-07-23T01:13:02;3.57;;;2.40;;
33074;SDS011;19433;51.292;6.868;2022-07-23T01:15:32;1.80;;;1.70;;
33074;SDS011;19433;51.292;6.868;2022-07-23T01:17:58;2.17;;;2.00;;
33074;SDS011;19433;51.292;6.868;2022-07-23T01:20:23;2.70;;;1.37;;
33074;SDS011;19433;51.292;6.868;2022-07-23T01:22:49;2.83;;;1.70;;
33074;SDS011;19433;51.292;6.868;2022-07-23T01:25:15;2.40;;;1.90;;
33074;SDS011;19433;51.292;6.868;2022-07-23T01:27:40;1.83;;;1.57;;
33074;SDS011;19433;51.292;6.868;2022-07-23T01:30:06;2.67;;;1.80;;
33074;SDS011;19433;51.292;6.868;2022-07-23T01:32:32;2.37;;;2.17;;
33074;SDS011;19433;51.292;6.868;2022-07-23T01:34:58;2.10;;;1.90;;
33074;SDS011;19433;51.292;6.868;2022-07-23T01:37:23;2.30;;;1.87;;
33074;SDS011;19433;51.292;6.868;2022-07-23T01:39:48;2.07;;;1.70;;
33074;SDS011;19433;51.292;6.868;2022-07-23T01:42:13;1.63;;;1.53;;
33074;SDS011;19433;51.292;6.868;2022-07-23T01:44:39;2.70;;;2.03;;
33074;SDS011;19433;51.292;6.868;2022-07-23T01:47:04;2.37;;;2.03;;
33074;SDS011;19433;51.292;6.868;2022-07-23T01:49:31;2.10;;;1.83;;
33074;SDS011;19433;51.292;6.868;2022-07-23T01:51:56;2.07;;;1.73;;
33074;SDS011;19433;51.292;6.868;2022-07-23T01:54:25;3.50;;;2.70;;
33074;SDS011;19433;51.292;6.868;2022-07-23T01:56:50;1.73;;;1.63;;
33074;SDS011;19433;51.292;6.868;2022-07-23T01:59:16;2.50;;;2.23;;
33074;SDS011;19433;51.292;6.868;2022-07-23T02:01:41;1.90;;;1.73;;
33074;SDS011;19433;51.292;6.868;2022-07-23T02:04:07;2.27;;;1.97;;
33074;SDS011;19433;51.292;6.868;2022-07-23T02:06:32;1.60;;;1.50;;
33074;SDS011;19433;51.292;6.868;2022-07-23T02:08:57;2.60;;;1.53;;
33074;SDS011;19433;51.292;6.868;2022-07-23T02:11:22;2.47;;;2.30;;
33074;SDS011;19433;51.292;6.868;2022-07-23T02:13:48;2.60;;;2.40;;
33074;SDS011;19433;51.292;6.868;2022-07-23T02:16:13;1.70;;;1.60;;
33074;SDS011;19433;51.292;6.868;2022-07-23T02:18:38;3.63;;;2.10;;
33074;SDS011;19433;51.292;6.868;2022-07-23T02:21:04;2.27;;;2.07;;
33074;SDS011;19433;51.292;6.868;2022-07-23T02:23:29;4.10;;;2.10;;
33074;SDS011;19433;51.292;6.868;2022-07-23T02:25:54;2.77;;;1.87;;
33074;SDS011;19433;51.292;6.868;2022-07-23T02:28:19;1.73;;;1.57;;
33074;SDS011;19433;51.292;6.868;2022-07-23T02:30:45;3.00;;;2.47;;
33074;SDS011;19433;51.292;6.868;2022-07-23T02:33:10;2.10;;;1.93;;
33074;SDS011;19433;51.292;6.868;2022-07-23T02:35:35;1.97;;;1.70;;
33074;SDS011;19433;51.292;6.868;2022-07-23T02:38:01;2.00;;;1.80;;
33074;SDS011;19433;51.292;6.868;2022-07-23T02:40:26;3.17;;;2.40;;
33074;SDS011;19433;51.292;6.868;2022-07-23T02:42:51;2.07;;;1.90;;
33074;SDS011;19433;51.292;6.868;2022-07-23T02:45:17;4.07;;;1.90;;
33074;SDS011;19433;51.292;6.868;2022-07-23T02:47:42;2.47;;;2.27;;
33074;SDS011;19433;51.292;6.868;2022-07-23T02:50:07;2.13;;;1.93;;
33074;SDS011;19433;51.292;6.868;2022-07-23T02:52:33;2.50;;;2.00;;
33074;SDS011;19433;51.292;6.868;2022-07-23T02:54:58;2.63;;;2.43;;
33074;SDS011;19433;51.292;6.868;2022-07-23T02:57:24;3.97;;;2.00;;
33074;SDS011;19433;51.292;6.868;2022-07-23T02:59:49;2.07;;;1.77;;
33074;SDS011;19433;51.292;6.868;2022-07-23T03:02:14;3.53;;;1.90;;
33074;SDS011;19433;51.292;6.868;2022-07-23T03:04:39;3.03;;;2.50;;
33074;SDS011;19433;51.292;6.868;2022-07-23T03:07:07;4.37;;;2.60;;
33074;SDS011;19433;51.292;6.868;2022-07-23T03:09:32;2.00;;;1.90;;
33074;SDS011;19433;51.292;6.868;2022-07-23T03:11:58;3.90;;;2.07;;
33074;SDS011;19433;51.292;6.868;2022-07-23T03:14:23;2.67;;;2.30;;
33074;SDS011;19433;51.292;6.868;2022-07-23T03:16:48;3.00;;;1.90;;
33074;SDS011;19433;51.292;6.868;2022-07-23T03:19:15;2.10;;;1.73;;
33074;SDS011;19433;51.292;6.868;2022-07-23T03:21:40;2.40;;;1.87;;
33074;SDS011;19433;51.292;6.868;2022-07-23T03:24:08;1.80;;;1.70;;
33074;SDS011;19433;51.292;6.868;2022-07-23T03:26:34;2.27;;;2.10;;
33074;SDS011;19433;51.292;6.868;2022-07-23T03:29:00;2.27;;;2.07;;
33074;SDS011;19433;51.292;6.868;2022-07-23T03:31:26;1.60;;;1.50;;
33074;SDS011;19433;51.292;6.868;2022-07-23T03:33:51;2.00;;;1.80;;
33074;SDS011;19433;51.292;6.868;2022-07-23T03:36:17;2.93;;;2.60;;
33074;SDS011;19433;51.292;6.868;2022-07-23T03:38:42;2.37;;;1.70;;
33074;SDS011;19433;51.292;6.868;2022-07-23T03:41:07;1.50;;;1.40;;
33074;SDS011;19433;51.292;6.868;2022-07-23T03:43:33;1.53;;;1.30;;
33074;SDS011;19433;51.292;6.868;2022-07-23T03:45:58;2.03;;;1.57;;
33074;SDS011;19433;51.292;6.868;2022-07-23T03:48:23;1.50;;;1.40;;
33074;SDS011;19433;51.292;6.868;2022-07-23T03:50:50;2.10;;;1.90;;
33074;SDS011;19433;51.292;6.868;2022-07-23T03:53:15;4.60;;;1.83;;
33074;SDS011;19433;51.292;6.868;2022-07-23T03:55:41;4.10;;;2.03;;
33074;SDS011;19433;51.292;6.868;2022-07-23T03:58:06;1.53;;;1.43;;
33074;SDS011;19433;51.292;6.868;2022-07-23T04:00:31;1.50;;;1.40;;
33074;SDS011;19433;51.292;6.868;2022-07-23T04:02:57;1.60;;;1.40;;
33074;SDS011;19433;51.292;6.868;2022-07-23T04:05:22;1.80;;;1.40;;
33074;SDS011;19433;51.292;6.868;2022-07-23T04:07:47;2.13;;;1.57;;
33074;SDS011;19433;51.292;6.868;2022-07-23T04:10:12;1.50;;;1.23;;
33074;SDS011;19433;51.292;6.868;2022-07-23T04:12:38;1.43;;;1.27;;
33074;SDS011;19433;51.292;6.868;2022-07-23T04:15:03;5.00;;;1.77;;
33074;SDS011;19433;51.292;6.868;2022-07-23T04:17:29;1.20;;;1.20;;
33074;SDS011;19433;51.292;6.868;2022-07-23T04:19:54;1.43;;;1.33;;
33074;SDS011;19433;51.292;6.868;2022-07-23T04:22:19;3.53;;;1.97;;
33074;SDS011;19433;51.292;6.868;2022-07-23T04:24:45;1.53;;;1.43;;
33074;SDS011;19433;51.292;6.868;2022-07-23T04:27:10;4.10;;;1.80;;
33074;SDS011;19433;51.292;6.868;2022-07-23T04:29:35;3.00;;;2.03;;
33074;SDS011;19433;51.292;6.868;2022-07-23T04:32:01;2.00;;;1.60;;
33074;SDS011;19433;51.292;6.868;2022-07-23T04:34:27;4.67;;;2.10;;
33074;SDS011;19433;51.292;6.868;2022-07-23T04:36:52;3.97;;;1.73;;
33074;SDS011;19433;51.292;6.868;2022-07-23T04:39:18;1.07;;;1.07;;
33074;SDS011;19433;51.292;6.868;2022-07-23T04:41:44;1.50;;;1.40;;
33074;SDS011;19433;51.292;6.868;2022-07-23T04:44:09;1.97;;;1.83;;
33074;SDS011;19433;51.292;6.868;2022-07-23T04:46:34;2.77;;;1.90;;
33074;SDS011;19433;51.292;6.868;2022-07-23T04:48:59;2.13;;;1.80;;
33074;SDS011;19433;51.292;6.868;2022-07-23T04:51:25;1.63;;;1.53;;
33074;SDS011;19433;51.292;6.868;2022-07-23T04:53:50;2.37;;;1.50;;
33074;SDS011;19433;51.292;6.868;2022-07-23T04:56:16;2.73;;;2.00;;
33074;SDS011;19433;51.292;6.868;2022-07-23T04:58:41;2.10;;;1.90;;
33074;SDS011;19433;51.292;6.868;2022-07-23T05:01:07;2.17;;;1.60;;
33074;SDS011;19433;51.292;6.868;2022-07-23T05:03:32;1.40;;;1.27;;
33074;SDS011;19433;51.292;6.868;2022-07-23T05:05:58;1.57;;;1.47;;
33074;SDS011;19433;51.292;6.868;2022-07-23T05:08:23;2.90;;;2.17;;
33074;SDS011;19433;51.292;6.868;2022-07-23T05:10:48;3.53;;;1.87;;
33074;SDS011;19433;51.292;6.868;2022-07-23T05:13:14;2.47;;;2.27;;
33074;SDS011;19433;51.292;6.868;2022-07-23T05:15:40;2.23;;;1.50;;
33074;SDS011;19433;51.292;6.868;2022-07-23T05:18:06;2.20;;;1.43;;
33074;SDS011;19433;51.292;6.868;2022-07-23T05:20:31;2.33;;;2.13;;
33074;SDS011;19433;51.292;6.868;2022-07-23T05:22:56;3.00;;;2.00;;
33074;SDS011;19433;51.292;6.868;2022-07-23T05:25:22;3.03;;;2.07;;
33074;SDS011;19433;51.292;6.868;2022-07-23T05:27:47;2.70;;;1.80;;
33074;SDS011;19433;51.292;6.868;2022-07-23T05:30:12;2.80;;;1.80;;
33074;SDS011;19433;51.292;6.868;2022-07-23T05:32:38;2.10;;;2.00;;
33074;SDS011;19433;51.292;6.868;2022-07-23T05:35:04;2.70;;;2.50;;
33074;SDS011;19433;51.292;6.868;2022-07-23T05:37:30;3.63;;;2.67;;
33074;SDS011;19433;51.292;6.868;2022-07-23T05:39:55;3.13;;;2.83;;
33074;SDS011;19433;51.292;6.868;2022-07-23T05:42:25;2.10;;;2.00;;
33074;SDS011;19433;51.292;6.868;2022-07-23T05:44:51;3.03;;;1.90;;
33074;SDS011;19433;51.292;6.868;2022-07-23T05:47:16;2.87;;;2.50;;
33074;SDS011;19433;51.292;6.868;2022-07-23T05:49:42;2.83;;;2.00;;
33074;SDS011;19433;51.292;6.868;2022-07-23T05:52:08;2.23;;;1.90;;
33074;SDS011;19433;51.292;6.868;2022-07-23T05:54:36;2.50;;;2.10;;
33074;SDS011;19433;51.292;6.868;2022-07-23T05:57:02;2.90;;;2.60;;
33074;SDS011;19433;51.292;6.868;2022-07-23T05:59:28;2.33;;;2.13;;
33074;SDS011;19433;51.292;6.868;2022-07-23T06:01:54;2.53;;;1.90;;
33074;SDS011;19433;51.292;6.868;2022-07-23T06:04:19;3.17;;;2.07;;
33074;SDS011;19433;51.292;6.868;2022-07-23T06:06:44;2.83;;;2.30;;
33074;SDS011;19433;51.292;6.868;2022-07-23T06:09:09;2.20;;;1.90;;
33074;SDS011;19433;51.292;6.868;2022-07-23T06:11:38;2.47;;;2.27;;
33074;SDS011;19433;51.292;6.868;2022-07-23T06:14:03;3.37;;;2.30;;
33074;SDS011;19433;51.292;6.868;2022-07-23T06:16:29;3.73;;;2.70;;
33074;SDS011;19433;51.292;6.868;2022-07-23T06:18:54;4.47;;;2.70;;
33074;SDS011;19433;51.292;6.868;2022-07-23T06:21:20;3.80;;;2.97;;
33074;SDS011;19433;51.292;6.868;2022-07-23T06:23:45;3.50;;;2.57;;
33074;SDS011;19433;51.292;6.868;2022-07-23T06:26:10;3.37;;;2.53;;
33074;SDS011;19433;51.292;6.868;2022-07-23T06:28:36;4.60;;;2.57;;
33074;SDS011;19433;51.292;6.868;2022-07-23T06:31:01;3.20;;;2.50;;
33074;SDS011;19433;51.292;6.868;2022-07-23T06:33:26;3.20;;;2.83;;
33074;SDS011;19433;51.292;6.868;2022-07-23T06:35:52;4.40;;;3.47;;
33074;SDS011;19433;51.292;6.868;2022-07-23T06:38:17;2.43;;;2.23;;
33074;SDS011;19433;51.292;6.868;2022-07-23T06:40:42;4.13;;;3.13;;
33074;SDS011;19433;51.292;6.868;2022-07-23T06:43:08;4.20;;;3.13;;
33074;SDS011;19433;51.292;6.868;2022-07-23T06:45:34;5.33;;;3.33;;
33074;SDS011;19433;51.292;6.868;2022-07-23T06:47:59;4.10;;;2.97;;
33074;SDS011;19433;51.292;6.868;2022-07-23T06:50:27;3.37;;;2.60;;
33074;SDS011;19433;51.292;6.868;2022-07-23T06:52:52;3.17;;;2.87;;
33074;SDS011;19433;51.292;6.868;2022-07-23T06:55:18;3.33;;;2.93;;
33074;SDS011;19433;51.292;6.868;2022-07-23T06:57:43;4.63;;;3.27;;
33074;SDS011;19433;51.292;6.868;2022-07-23T07:00:08;3.10;;;2.63;;
33074;SDS011;19433;51.292;6.868;2022-07-23T07:02:34;3.67;;;2.97;;
33074;SDS011;19433;51.292;6.868;2022-07-23T07:04:59;3.23;;;2.93;;
33074;SDS011;19433;51.292;6.868;2022-07-23T07:07:25;2.70;;;2.50;;
33074;SDS011;19433;51.292;6.868;2022-07-23T07:09:50;2.53;;;2.33;;
33074;SDS011;19433;51.292;6.868;2022-07-23T07:12:15;2.00;;;1.80;;
33074;SDS011;19433;51.292;6.868;2022-07-23T07:14:41;3.20;;;2.90;;
33074;SDS011;19433;51.292;6.868;2022-07-23T07:17:06;2.40;;;2.20;;
33074;SDS011;19433;51.292;6.868;2022-07-23T07:19:31;2.40;;;2.20;;
33074;SDS011;19433;51.292;6.868;2022-07-23T07:21:57;2.40;;;2.20;;
33074;SDS011;19433;51.292;6.868;2022-07-23T07:24:22;3.00;;;2.67;;
33074;SDS011;19433;51.292;6.868;2022-07-23T07:26:47;2.43;;;2.23;;
33074;SDS011;19433;51.292;6.868;2022-07-23T07:29:13;3.30;;;3.10;;
33074;SDS011;19433;51.292;6.868;2022-07-23T07:31:38;2.70;;;2.50;;
33074;SDS011;19433;51.292;6.868;2022-07-23T07:34:03;4.93;;;2.93;;
33074;SDS011;19433;51.292;6.868;2022-07-23T07:36:29;2.60;;;2.40;;
33074;SDS011;19433;51.292;6.868;2022-07-23T07:38:54;3.37;;;3.07;;
33074;SDS011;19433;51.292;6.868;2022-07-23T07:41:19;2.67;;;2.47;;
33074;SDS011;19433;51.292;6.868;2022-07-23T07:43:48;2.90;;;2.70;;
33074;SDS011;19433;51.292;6.868;2022-07-23T07:46:14;2.03;;;1.93;;
33074;SDS011;19433;51.292;6.868;2022-07-23T07:48:40;4.20;;;3.47;;
33074;SDS011;19433;51.292;6.868;2022-07-23T07:51:05;2.47;;;2.20;;
33074;SDS011;19433;51.292;6.868;2022-07-23T07:53:30;4.07;;;3.70;;
33074;SDS011;19433;51.292;6.868;2022-07-23T07:55:56;3.47;;;3.10;;
33074;SDS011;19433;51.292;6.868;2022-07-23T07:58:21;2.43;;;2.30;;
33074;SDS011;19433;51.292;6.868;2022-07-23T08:00:46;3.10;;;2.77;;
33074;SDS011;19433;51.292;6.868;2022-07-23T08:03:12;2.83;;;2.63;;
33074;SDS011;19433;51.292;6.868;2022-07-23T08:05:37;3.27;;;2.97;;
33074;SDS011;19433;51.292;6.868;2022-07-23T08:08:02;3.50;;;2.73;;
33074;SDS011;19433;51.292;6.868;2022-07-23T08:10:28;3.57;;;3.27;;
33074;SDS011;19433;51.292;6.868;2022-07-23T08:12:54;3.63;;;3.33;;
33074;SDS011;19433;51.292;6.868;2022-07-23T08:15:24;2.60;;;2.40;;
33074;SDS011;19433;51.292;6.868;2022-07-23T08:17:51;3.10;;;2.90;;
33074;SDS011;19433;51.292;6.868;2022-07-23T08:20:18;3.30;;;3.00;;
33074;SDS011;19433;51.292;6.868;2022-07-23T08:22:52;3.90;;;3.00;;
33074;SDS011;19433;51.292;6.868;2022-07-23T08:25:21;3.83;;;3.53;;
33074;SDS011;19433;51.292;6.868;2022-07-23T08:27:49;4.23;;;3.93;;
33074;SDS011;19433;51.292;6.868;2022-07-23T08:30:14;4.27;;;3.87;;
33074;SDS011;19433;51.292;6.868;2022-07-23T08:33:15;3.50;;;3.30;;
33074;SDS011;19433;51.292;6.868;2022-07-23T08:35:38;3.60;;;3.30;;
33074;SDS011;19433;51.292;6.868;2022-07-23T08:38:07;4.40;;;4.10;;
33074;SDS011;19433;51.292;6.868;2022-07-23T08:40:35;4.20;;;3.90;;
33074;SDS011;19433;51.292;6.868;2022-07-23T08:43:06;4.33;;;3.97;;
33074;SDS011;19433;51.292;6.868;2022-07-23T08:45:37;5.03;;;4.57;;
33074;SDS011;19433;51.292;6.868;2022-07-23T08:48:05;5.93;;;5.33;;
33074;SDS011;19433;51.292;6.868;2022-07-23T08:50:34;5.50;;;5.10;;
33074;SDS011;19433;51.292;6.868;2022-07-23T08:53:02;5.30;;;4.80;;
33074;SDS011;19433;51.292;6.868;2022-07-23T08:55:30;8.20;;;7.47;;
33074;SDS011;19433;51.292;6.868;2022-07-23T08:57:55;6.23;;;5.73;;
33074;SDS011;19433;51.292;6.868;2022-07-23T09:00:21;4.97;;;4.57;;
33074;SDS011;19433;51.292;6.868;2022-07-23T09:02:47;5.17;;;4.77;;
33074;SDS011;19433;51.292;6.868;2022-07-23T09:05:13;6.10;;;5.60;;
33074;SDS011;19433;51.292;6.868;2022-07-23T09:10:47;4.80;;;4.20;;
33074;SDS011;19433;51.292;6.868;2022-07-23T09:13:23;4.47;;;4.07;;
33074;SDS011;19433;51.292;6.868;2022-07-23T09:15:58;4.23;;;3.93;;
33074;SDS011;19433;51.292;6.868;2022-07-23T09:18:32;4.70;;;4.30;;
33074;SDS011;19433;51.292;6.868;2022-07-23T09:21:10;5.93;;;4.00;;
33074;SDS011;19433;51.292;6.868;2022-07-23T09:23:57;5.10;;;4.53;;
33074;SDS011;19433;51.292;6.868;2022-07-23T09:26:35;4.53;;;4.20;;
33074;SDS011;19433;51.292;6.868;2022-07-23T09:31:33;4.60;;;4.10;;
33074;SDS011;19433;51.292;6.868;2022-07-23T09:34:18;5.17;;;4.67;;
33074;SDS011;19433;51.292;6.868;2022-07-23T09:36:44;4.50;;;4.10;;
33074;SDS011;19433;51.292;6.868;2022-07-23T09:39:11;5.70;;;4.93;;
33074;SDS011;19433;51.292;6.868;2022-07-23T09:41:44;5.00;;;4.50;;
33074;SDS011;19433;51.292;6.868;2022-07-23T09:44:14;3.60;;;3.30;;
33074;SDS011;19433;51.292;6.868;2022-07-23T09:46:42;3.37;;;3.07;;
33074;SDS011;19433;51.292;6.868;2022-07-23T09:49:09;3.47;;;3.17;;
33074;SDS011;19433;51.292;6.868;2022-07-23T09:51:48;2.50;;;2.23;;
33074;SDS011;19433;51.292;6.868;2022-07-23T09:54:22;2.33;;;2.13;;
33074;SDS011;19433;51.292;6.868;2022-07-23T09:57:06;2.77;;;2.57;;
33074;SDS011;19433;51.292;6.868;2022-07-23T09:59:36;2.70;;;2.50;;
33074;SDS011;19433;51.292;6.868;2022-07-23T10:02:03;3.23;;;1.70;;
33074;SDS011;19433;51.292;6.868;2022-07-23T10:04:30;2.40;;;2.20;;
33074;SDS011;19433;51.292;6.868;2022-07-23T10:06:59;3.00;;;2.13;;
33074;SDS011;19433;51.292;6.868;2022-07-23T10:09:30;3.60;;;1.80;;
33074;SDS011;19433;51.292;6.868;2022-07-23T10:11:58;1.97;;;1.87;;
33074;SDS011;19433;51.292;6.868;2022-07-23T10:14:33;1.30;;;1.20;;
33074;SDS011;19433;51.292;6.868;2022-07-23T10:17:00;1.60;;;1.50;;
33074;SDS011;19433;51.292;6.868;2022-07-23T10:19:29;1.40;;;1.30;;
33074;SDS011;19433;51.292;6.868;2022-07-23T10:22:00;1.23;;;1.23;;
33074;SDS011;19433;51.292;6.868;2022-07-23T10:24:35;1.23;;;1.10;;
33074;SDS011;19433;51.292;6.868;2022-07-23T10:27:31;1.67;;;1.57;;
33074;SDS011;19433;51.292;6.868;2022-07-23T10:32:43;1.50;;;1.40;;
33074;SDS011;19433;51.292;6.868;2022-07-23T10:35:13;0.93;;;0.93;;
33074;SDS011;19433;51.292;6.868;2022-07-23T10:37:43;0.87;;;0.87;;
33074;SDS011;19433;51.292;6.868;2022-07-23T10:42:44;1.87;;;1.10;;
33074;SDS011;19433;51.292;6.868;2022-07-23T10:47:55;0.60;;;0.60;;
33074;SDS011;19433;51.292;6.868;2022-07-23T10:50:35;1.33;;;0.70;;
33074;SDS011;19433;51.292;6.868;2022-07-23T10:53:11;1.20;;;1.10;;
33074;SDS011;19433;51.292;6.868;2022-07-23T10:58:17;0.70;;;0.70;;
33074;SDS011;19433;51.292;6.868;2022-07-23T11:00:47;0.77;;;0.77;;
33074;SDS011;19433;51.292;6.868;2022-07-23T11:03:29;1.10;;;1.00;;
33074;SDS011;19433;51.292;6.868;2022-07-23T11:06:02;0.93;;;0.93;;
33074;SDS011;19433;51.292;6.868;2022-07-23T11:08:28;0.60;;;0.50;;
33074;SDS011;19433;51.292;6.868;2022-07-23T11:13:31;0.80;;;0.80;;
33074;SDS011;19433;51.292;6.868;2022-07-23T11:23:59;1.20;;;1.07;;
33074;SDS011;19433;51.292;6.868;2022-07-23T11:26:40;2.50;;;0.83;;
33074;SDS011;19433;51.292;6.868;2022-07-23T11:34:30;0.80;;;0.80;;
33074;SDS011;19433;51.292;6.868;2022-07-23T11:36:59;1.17;;;0.80;;
33074;SDS011;19433;51.292;6.868;2022-07-23T11:39:27;0.63;;;0.63;;
33074;SDS011;19433;51.292;6.868;2022-07-23T11:41:54;1.17;;;1.03;;
33074;SDS011;19433;51.292;6.868;2022-07-23T11:44:27;0.73;;;0.73;;
33074;SDS011;19433;51.292;6.868;2022-07-23T11:47:03;0.60;;;0.60;;
33074;SDS011;19433;51.292;6.868;2022-07-23T11:49:30;0.60;;;0.60;;
33074;SDS011;19433;51.292;6.868;2022-07-23T11:54:50;0.77;;;0.50;;
33074;SDS011;19433;51.292;6.868;2022-07-23T11:57:18;1.20;;;0.80;;
33074;SDS011;19433;51.292;6.868;2022-07-23T11:59:46;0.80;;;0.70;;
33074;SDS011;19433;51.292;6.868;2022-07-23T12:02:14;0.70;;;0.70;;
33074;SDS011;19433;51.292;6.868;2022-07-23T12:04:43;0.60;;;0.60;;
33074;SDS011;19433;51.292;6.868;2022-07-23T12:07:27;0.60;;;0.60;;
33074;SDS011;19433;51.292;6.868;2022-07-23T12:12:49;0.70;;;0.70;;
33074;SDS011;19433;51.292;6.868;2022-07-23T12:15:17;1.17;;;0.83;;
33074;SDS011;19433;51.292;6.868;2022-07-23T12:17:47;0.80;;;0.80;;
33074;SDS011;19433;51.292;6.868;2022-07-23T12:20:16;0.90;;;0.90;;
33074;SDS011;19433;51.292;6.868;2022-07-23T12:22:45;0.80;;;0.60;;
33074;SDS011;19433;51.292;6.868;2022-07-23T12:25:16;0.93;;;0.80;;
33074;SDS011;19433;51.292;6.868;2022-07-23T12:27:43;0.80;;;0.80;;
33074;SDS011;19433;51.292;6.868;2022-07-23T12:30:25;1.10;;;1.00;;
33074;SDS011;19433;51.292;6.868;2022-07-23T12:32:53;1.20;;;1.10;;
33074;SDS011;19433;51.292;6.868;2022-07-23T12:35:20;1.00;;;1.00;;
33074;SDS011;19433;51.292;6.868;2022-07-23T12:37:48;0.97;;;0.80;;
33074;SDS011;19433;51.292;6.868;2022-07-23T12:40:33;0.90;;;0.90;;
33074;SDS011;19433;51.292;6.868;2022-07-23T12:43:05;1.43;;;0.83;;
33074;SDS011;19433;51.292;6.868;2022-07-23T12:48:25;1.43;;;0.80;;
33074;SDS011;19433;51.292;6.868;2022-07-23T12:50:59;1.17;;;1.07;;
33074;SDS011;19433;51.292;6.868;2022-07-23T12:53:30;0.77;;;0.77;;
33074;SDS011;19433;51.292;6.868;2022-07-23T12:56:21;0.90;;;0.90;;
33074;SDS011;19433;51.292;6.868;2022-07-23T12:58:55;0.77;;;0.77;;
33074;SDS011;19433;51.292;6.868;2022-07-23T13:03:56;0.90;;;0.90;;
33074;SDS011;19433;51.292;6.868;2022-07-23T13:06:30;1.30;;;1.20;;
33074;SDS011;19433;51.292;6.868;2022-07-23T13:08:57;1.13;;;1.03;;
33074;SDS011;19433;51.292;6.868;2022-07-23T13:11:23;1.23;;;1.13;;
33074;SDS011;19433;51.292;6.868;2022-07-23T13:13:49;1.50;;;1.40;;
33074;SDS011;19433;51.292;6.868;2022-07-23T13:16:14;1.17;;;1.17;;
33074;SDS011;19433;51.292;6.868;2022-07-23T13:18:40;1.17;;;1.17;;
33074;SDS011;19433;51.292;6.868;2022-07-23T13:21:05;1.00;;;1.00;;
33074;SDS011;19433;51.292;6.868;2022-07-23T13:23:30;1.20;;;1.20;;
33074;SDS011;19433;51.292;6.868;2022-07-23T13:25:55;1.20;;;1.20;;
33074;SDS011;19433;51.292;6.868;2022-07-23T13:28:21;1.60;;;1.50;;
33074;SDS011;19433;51.292;6.868;2022-07-23T13:30:48;1.00;;;1.00;;
33074;SDS011;19433;51.292;6.868;2022-07-23T13:33:15;1.23;;;1.13;;
33074;SDS011;19433;51.292;6.868;2022-07-23T13:35:44;0.70;;;0.70;;
33074;SDS011;19433;51.292;6.868;2022-07-23T13:38:10;1.10;;;1.00;;
33074;SDS011;19433;51.292;6.868;2022-07-23T13:40:36;0.80;;;0.80;;
33074;SDS011;19433;51.292;6.868;2022-07-23T13:43:04;0.73;;;0.73;;
33074;SDS011;19433;51.292;6.868;2022-07-23T13:45:31;1.17;;;1.00;;
33074;SDS011;19433;51.292;6.868;2022-07-23T13:47:57;1.07;;;1.00;;
33074;SDS011;19433;51.292;6.868;2022-07-23T13:50:22;1.13;;;1.10;;
33074;SDS011;19433;51.292;6.868;2022-07-23T13:52:48;1.07;;;1.07;;
33074;SDS011;19433;51.292;6.868;2022-07-23T13:55:14;1.13;;;1.07;;
33074;SDS011;19433;51.292;6.868;2022-07-23T13:57:39;1.10;;;1.00;;
33074;SDS011;19433;51.292;6.868;2022-07-23T14:00:05;1.00;;;1.00;;
33074;SDS011;19433;51.292;6.868;2022-07-23T14:02:32;0.90;;;0.87;;
33074;SDS011;19433;51.292;6.868;2022-07-23T14:04:58;1.00;;;0.87;;
33074;SDS011;19433;51.292;6.868;2022-07-23T14:07:23;0.80;;;0.80;;
33074;SDS011;19433;51.292;6.868;2022-07-23T14:09:48;1.00;;;1.00;;
33074;SDS011;19433;51.292;6.868;2022-07-23T14:12:14;0.90;;;0.90;;
33074;SDS011;19433;51.292;6.868;2022-07-23T14:14:39;0.90;;;0.90;;
33074;SDS011;19433;51.292;6.868;2022-07-23T14:17:04;1.30;;;1.30;;
33074;SDS011;19433;51.292;6.868;2022-07-23T14:19:30;0.80;;;0.80;;
33074;SDS011;19433;51.292;6.868;2022-07-23T14:21:55;0.87;;;0.87;;
33074;SDS011;19433;51.292;6.868;2022-07-23T14:24:21;1.10;;;1.00;;
33074;SDS011;19433;51.292;6.868;2022-07-23T14:26:46;1.23;;;1.13;;
33074;SDS011;19433;51.292;6.868;2022-07-23T14:29:11;1.00;;;1.00;;
33074;SDS011;19433;51.292;6.868;2022-07-23T14:31:37;0.93;;;0.90;;
33074;SDS011;19433;51.292;6.868;2022-07-23T14:34:02;0.80;;;0.80;;
33074;SDS011;19433;51.292;6.868;2022-07-23T14:36:28;1.17;;;1.07;;
33074;SDS011;19433;51.292;6.868;2022-07-23T14:38:53;1.03;;;1.03;;
33074;SDS011;19433;51.292;6.868;2022-07-23T14:41:18;1.30;;;1.20;;
33074;SDS011;19433;51.292;6.868;2022-07-23T14:43:44;1.20;;;1.10;;
33074;SDS011;19433;51.292;6.868;2022-07-23T14:46:10;1.07;;;0.97;;
33074;SDS011;19433;51.292;6.868;2022-07-23T14:48:36;0.70;;;0.70;;
33074;SDS011;19433;51.292;6.868;2022-07-23T14:51:02;1.33;;;1.23;;
33074;SDS011;19433;51.292;6.868;2022-07-23T14:53:28;1.50;;;1.17;;
33074;SDS011;19433;51.292;6.868;2022-07-23T14:55:54;0.90;;;0.90;;
33074;SDS011;19433;51.292;6.868;2022-07-23T14:58:20;0.87;;;0.87;;
33074;SDS011;19433;51.292;6.868;2022-07-23T15:00:46;1.00;;;0.90;;
33074;SDS011;19433;51.292;6.868;2022-07-23T15:03:11;1.30;;;1.20;;
33074;SDS011;19433;51.292;6.868;2022-07-23T15:05:36;1.30;;;1.17;;
33074;SDS011;19433;51.292;6.868;2022-07-23T15:08:02;1.23;;;1.10;;
33074;SDS011;19433;51.292;6.868;2022-07-23T15:10:28;1.00;;;1.00;;
33074;SDS011;19433;51.292;6.868;2022-07-23T15:12:53;1.80;;;1.70;;
33074;SDS011;19433;51.292;6.868;2022-07-23T15:15:18;1.50;;;1.40;;
33074;SDS011;19433;51.292;6.868;2022-07-23T15:17:44;1.23;;;1.23;;
33074;SDS011;19433;51.292;6.868;2022-07-23T15:20:09;1.07;;;1.03;;
33074;SDS011;19433;51.292;6.868;2022-07-23T15:22:34;1.20;;;1.20;;
33074;SDS011;19433;51.292;6.868;2022-07-23T15:24:59;1.27;;;1.20;;
33074;SDS011;19433;51.292;6.868;2022-07-23T15:27:25;1.40;;;1.30;;
33074;SDS011;19433;51.292;6.868;2022-07-23T15:29:51;1.50;;;1.40;;